sensor_id;sensor_type;location;lat;lon;timestamp;P1;durP1;ratioP1;P2;durP2;ratioP2
22172;SDS011;11252;50.596;17.648;2023-02-25T00:01:18;29.57;;;21.10;;
22172;SDS011;11252;50.596;17.648;2023-02-25T00:03:47;38.03;;;22.73;;
22172;SDS011;11252;50.596;17.648;2023-02-25T00:06:16;32.07;;;21.53;;
22172;SDS011;11252;50.596;17.648;2023-02-25T00:08:44;30.80;;;20.40;;
22172;SDS011;11252;50.596;17.648;2023-02-25T00:11:12;29.73;;;20.87;;
22172;SDS011;11252;50.596;17.648;2023-02-25T00:13:41;36.43;;;22.63;;
22172;SDS011;11252;50.596;17.648;2023-02-25T00:16:09;32.23;;;19.57;;
22172;SDS011;11252;50.596;17.648;2023-02-25T00:18:38;27.27;;;18.60;;
22172;SDS011;11252;50.596;17.648;2023-02-25T00:21:13;26.90;;;17.87;;
22172;SDS011;11252;50.596;17.648;2023-02-25T00:23:42;27.77;;;18.40;;
22172;SDS011;11252;50.596;17.648;2023-02-25T00:26:11;27.97;;;18.00;;
22172;SDS011;11252;50.596;17.648;2023-02-25T00:28:40;25.60;;;17.90;;
22172;SDS011;11252;50.596;17.648;2023-02-25T00:31:08;23.50;;;15.93;;
22172;SDS011;11252;50.596;17.648;2023-02-25T00:33:37;22.50;;;15.40;;
22172;SDS011;11252;50.596;17.648;2023-02-25T00:36:08;19.77;;;13.27;;
22172;SDS011;11252;50.596;17.648;2023-02-25T00:38:37;18.97;;;12.37;;
22172;SDS011;11252;50.596;17.648;2023-02-25T00:41:09;26.00;;;14.87;;
22172;SDS011;11252;50.596;17.648;2023-02-25T00:43:41;23.73;;;15.30;;
22172;SDS011;11252;50.596;17.648;2023-02-25T00:46:10;24.70;;;14.77;;
22172;SDS011;11252;50.596;17.648;2023-02-25T00:48:38;23.27;;;15.17;;
22172;SDS011;11252;50.596;17.648;2023-02-25T00:51:09;22.97;;;14.87;;
22172;SDS011;11252;50.596;17.648;2023-02-25T00:53:39;25.83;;;17.43;;
22172;SDS011;11252;50.596;17.648;2023-02-25T00:56:07;26.93;;;16.90;;
22172;SDS011;11252;50.596;17.648;2023-02-25T00:58:36;31.30;;;18.17;;
22172;SDS011;11252;50.596;17.648;2023-02-25T01:01:05;28.90;;;17.17;;
22172;SDS011;11252;50.596;17.648;2023-02-25T01:03:41;26.97;;;17.13;;
22172;SDS011;11252;50.596;17.648;2023-02-25T01:06:09;26.37;;;17.27;;
22172;SDS011;11252;50.596;17.648;2023-02-25T01:08:36;26.90;;;17.83;;
22172;SDS011;11252;50.596;17.648;2023-02-25T01:11:14;24.37;;;16.13;;
22172;SDS011;11252;50.596;17.648;2023-02-25T01:13:47;23.33;;;15.87;;
22172;SDS011;11252;50.596;17.648;2023-02-25T01:16:24;21.80;;;15.33;;
22172;SDS011;11252;50.596;17.648;2023-02-25T01:18:54;23.47;;;13.90;;
22172;SDS011;11252;50.596;17.648;2023-02-25T01:21:27;14.77;;;11.13;;
22172;SDS011;11252;50.596;17.648;2023-02-25T01:23:58;16.97;;;11.37;;
22172;SDS011;11252;50.596;17.648;2023-02-25T01:26:28;12.87;;;9.60;;
22172;SDS011;11252;50.596;17.648;2023-02-25T01:28:57;12.50;;;9.37;;
22172;SDS011;11252;50.596;17.648;2023-02-25T01:31:25;12.50;;;10.20;;
22172;SDS011;11252;50.596;17.648;2023-02-25T01:33:58;11.97;;;9.00;;
22172;SDS011;11252;50.596;17.648;2023-02-25T01:36:28;13.40;;;8.53;;
22172;SDS011;11252;50.596;17.648;2023-02-25T01:38:57;11.17;;;8.83;;
22172;SDS011;11252;50.596;17.648;2023-02-25T01:41:26;10.80;;;9.50;;
22172;SDS011;11252;50.596;17.648;2023-02-25T01:46:41;10.90;;;8.30;;
22172;SDS011;11252;50.596;17.648;2023-02-25T01:49:16;13.80;;;9.13;;
22172;SDS011;11252;50.596;17.648;2023-02-25T01:51:45;13.60;;;9.23;;
22172;SDS011;11252;50.596;17.648;2023-02-25T01:54:17;13.53;;;8.57;;
22172;SDS011;11252;50.596;17.648;2023-02-25T01:56:48;9.77;;;7.17;;
22172;SDS011;11252;50.596;17.648;2023-02-25T01:59:20;11.77;;;7.67;;
22172;SDS011;11252;50.596;17.648;2023-02-25T02:01:50;9.13;;;6.87;;
22172;SDS011;11252;50.596;17.648;2023-02-25T02:04:18;9.17;;;6.07;;
22172;SDS011;11252;50.596;17.648;2023-02-25T02:06:47;8.07;;;6.37;;
22172;SDS011;11252;50.596;17.648;2023-02-25T02:09:23;7.40;;;6.03;;
22172;SDS011;11252;50.596;17.648;2023-02-25T02:11:54;5.30;;;4.83;;
22172;SDS011;11252;50.596;17.648;2023-02-25T02:14:24;5.93;;;5.33;;
22172;SDS011;11252;50.596;17.648;2023-02-25T02:17:06;6.17;;;4.97;;
22172;SDS011;11252;50.596;17.648;2023-02-25T02:25:23;4.27;;;3.87;;
22172;SDS011;11252;50.596;17.648;2023-02-25T02:36:54;5.87;;;4.20;;
22172;SDS011;11252;50.596;17.648;2023-02-25T02:39:48;4.93;;;4.30;;
22172;SDS011;11252;50.596;17.648;2023-02-25T02:42:25;5.47;;;4.00;;
22172;SDS011;11252;50.596;17.648;2023-02-25T02:47:38;5.77;;;4.80;;
22172;SDS011;11252;50.596;17.648;2023-02-25T02:50:09;8.80;;;5.00;;
22172;SDS011;11252;50.596;17.648;2023-02-25T02:52:45;5.90;;;4.83;;
22172;SDS011;11252;50.596;17.648;2023-02-25T02:55:18;4.90;;;4.40;;
22172;SDS011;11252;50.596;17.648;2023-02-25T02:57:49;6.87;;;5.10;;
22172;SDS011;11252;50.596;17.648;2023-02-25T03:00:21;6.13;;;4.67;;
22172;SDS011;11252;50.596;17.648;2023-02-25T03:02:55;12.67;;;5.30;;
22172;SDS011;11252;50.596;17.648;2023-02-25T03:05:26;5.00;;;4.20;;
22172;SDS011;11252;50.596;17.648;2023-02-25T03:08:19;6.77;;;4.93;;
22172;SDS011;11252;50.596;17.648;2023-02-25T03:10:50;5.00;;;4.50;;
22172;SDS011;11252;50.596;17.648;2023-02-25T03:13:18;4.53;;;3.67;;
22172;SDS011;11252;50.596;17.648;2023-02-25T03:15:45;4.63;;;3.90;;
22172;SDS011;11252;50.596;17.648;2023-02-25T03:18:36;5.83;;;3.93;;
22172;SDS011;11252;50.596;17.648;2023-02-25T03:21:10;3.77;;;3.37;;
22172;SDS011;11252;50.596;17.648;2023-02-25T03:23:40;5.73;;;3.73;;
22172;SDS011;11252;50.596;17.648;2023-02-25T03:28:39;3.53;;;3.00;;
22172;SDS011;11252;50.596;17.648;2023-02-25T03:33:51;3.07;;;2.60;;
22172;SDS011;11252;50.596;17.648;2023-02-25T03:36:29;3.10;;;2.80;;
22172;SDS011;11252;50.596;17.648;2023-02-25T03:39:02;2.87;;;2.57;;
22172;SDS011;11252;50.596;17.648;2023-02-25T03:41:35;3.37;;;2.70;;
22172;SDS011;11252;50.596;17.648;2023-02-25T03:44:06;2.43;;;2.17;;
22172;SDS011;11252;50.596;17.648;2023-02-25T03:46:37;4.17;;;2.80;;
22172;SDS011;11252;50.596;17.648;2023-02-25T03:49:08;3.13;;;2.80;;
22172;SDS011;11252;50.596;17.648;2023-02-25T03:51:41;2.97;;;2.67;;
22172;SDS011;11252;50.596;17.648;2023-02-25T03:54:13;4.63;;;2.87;;
22172;SDS011;11252;50.596;17.648;2023-02-25T03:56:43;5.00;;;3.13;;
22172;SDS011;11252;50.596;17.648;2023-02-25T03:59:12;3.17;;;2.80;;
22172;SDS011;11252;50.596;17.648;2023-02-25T04:01:41;2.90;;;2.60;;
22172;SDS011;11252;50.596;17.648;2023-02-25T04:04:10;3.07;;;2.80;;
22172;SDS011;11252;50.596;17.648;2023-02-25T04:06:37;3.93;;;2.80;;
22172;SDS011;11252;50.596;17.648;2023-02-25T04:09:05;2.97;;;2.60;;
22172;SDS011;11252;50.596;17.648;2023-02-25T04:11:33;3.13;;;2.83;;
22172;SDS011;11252;50.596;17.648;2023-02-25T04:14:01;5.63;;;3.70;;
22172;SDS011;11252;50.596;17.648;2023-02-25T04:16:28;3.53;;;3.23;;
22172;SDS011;11252;50.596;17.648;2023-02-25T04:18:55;3.47;;;3.17;;
22172;SDS011;11252;50.596;17.648;2023-02-25T04:21:40;4.27;;;3.30;;
22172;SDS011;11252;50.596;17.648;2023-02-25T04:24:08;3.90;;;3.23;;
22172;SDS011;11252;50.596;17.648;2023-02-25T04:26:37;5.43;;;4.00;;
22172;SDS011;11252;50.596;17.648;2023-02-25T04:29:04;8.50;;;5.10;;
22172;SDS011;11252;50.596;17.648;2023-02-25T04:31:32;4.10;;;2.03;;
22172;SDS011;11252;50.596;17.648;2023-02-25T04:33:59;5.50;;;2.30;;
22172;SDS011;11252;50.596;17.648;2023-02-25T04:36:28;3.00;;;1.30;;
22172;SDS011;11252;50.596;17.648;2023-02-25T04:38:59;2.63;;;1.20;;
22172;SDS011;11252;50.596;17.648;2023-02-25T04:41:29;2.50;;;0.90;;
22172;SDS011;11252;50.596;17.648;2023-02-25T04:43:58;2.17;;;1.00;;
22172;SDS011;11252;50.596;17.648;2023-02-25T04:46:25;3.50;;;1.83;;
22172;SDS011;11252;50.596;17.648;2023-02-25T04:48:53;0.97;;;0.90;;
22172;SDS011;11252;50.596;17.648;2023-02-25T04:51:20;3.50;;;1.00;;
22172;SDS011;11252;50.596;17.648;2023-02-25T04:53:48;4.10;;;0.83;;
22172;SDS011;11252;50.596;17.648;2023-02-25T04:56:16;2.30;;;1.10;;
22172;SDS011;11252;50.596;17.648;2023-02-25T04:58:44;1.80;;;1.00;;
22172;SDS011;11252;50.596;17.648;2023-02-25T05:01:11;1.93;;;1.20;;
22172;SDS011;11252;50.596;17.648;2023-02-25T05:03:39;2.83;;;1.50;;
22172;SDS011;11252;50.596;17.648;2023-02-25T05:06:07;1.80;;;1.20;;
22172;SDS011;11252;50.596;17.648;2023-02-25T05:08:35;3.90;;;2.17;;
22172;SDS011;11252;50.596;17.648;2023-02-25T05:11:02;3.50;;;2.10;;
22172;SDS011;11252;50.596;17.648;2023-02-25T05:13:30;4.73;;;2.53;;
22172;SDS011;11252;50.596;17.648;2023-02-25T05:16:05;3.83;;;2.90;;
22172;SDS011;11252;50.596;17.648;2023-02-25T05:18:35;3.00;;;2.27;;
22172;SDS011;11252;50.596;17.648;2023-02-25T05:21:04;3.67;;;2.20;;
22172;SDS011;11252;50.596;17.648;2023-02-25T05:23:38;4.07;;;2.33;;
22172;SDS011;11252;50.596;17.648;2023-02-25T05:26:06;2.10;;;1.93;;
22172;SDS011;11252;50.596;17.648;2023-02-25T05:28:34;2.30;;;2.10;;
22172;SDS011;11252;50.596;17.648;2023-02-25T05:31:03;3.17;;;2.20;;
22172;SDS011;11252;50.596;17.648;2023-02-25T05:33:31;3.00;;;2.70;;
22172;SDS011;11252;50.596;17.648;2023-02-25T05:35:59;5.30;;;2.83;;
22172;SDS011;11252;50.596;17.648;2023-02-25T05:38:27;3.17;;;2.70;;
22172;SDS011;11252;50.596;17.648;2023-02-25T05:40:54;24.20;;;15.33;;
22172;SDS011;11252;50.596;17.648;2023-02-25T05:43:24;6.60;;;5.73;;
22172;SDS011;11252;50.596;17.648;2023-02-25T05:45:55;5.07;;;4.30;;
22172;SDS011;11252;50.596;17.648;2023-02-25T05:48:23;5.97;;;3.33;;
22172;SDS011;11252;50.596;17.648;2023-02-25T05:50:58;4.17;;;3.67;;
22172;SDS011;11252;50.596;17.648;2023-02-25T05:53:27;4.17;;;3.70;;
22172;SDS011;11252;50.596;17.648;2023-02-25T05:55:54;3.93;;;3.53;;
22172;SDS011;11252;50.596;17.648;2023-02-25T05:58:21;4.10;;;3.10;;
22172;SDS011;11252;50.596;17.648;2023-02-25T06:00:49;5.67;;;3.97;;
22172;SDS011;11252;50.596;17.648;2023-02-25T06:03:17;4.73;;;3.47;;
22172;SDS011;11252;50.596;17.648;2023-02-25T06:05:45;4.37;;;3.70;;
22172;SDS011;11252;50.596;17.648;2023-02-25T06:08:13;4.53;;;4.03;;
22172;SDS011;11252;50.596;17.648;2023-02-25T06:10:40;3.53;;;3.23;;
22172;SDS011;11252;50.596;17.648;2023-02-25T06:13:08;4.17;;;3.67;;
22172;SDS011;11252;50.596;17.648;2023-02-25T06:15:37;4.47;;;3.20;;
22172;SDS011;11252;50.596;17.648;2023-02-25T06:18:05;4.00;;;3.00;;
22172;SDS011;11252;50.596;17.648;2023-02-25T06:20:34;2.63;;;2.17;;
22172;SDS011;11252;50.596;17.648;2023-02-25T06:23:01;4.13;;;2.40;;
22172;SDS011;11252;50.596;17.648;2023-02-25T06:25:29;2.97;;;2.67;;
22172;SDS011;11252;50.596;17.648;2023-02-25T06:27:58;2.77;;;2.53;;
22172;SDS011;11252;50.596;17.648;2023-02-25T06:30:26;5.83;;;2.40;;
22172;SDS011;11252;50.596;17.648;2023-02-25T06:32:55;1.90;;;1.67;;
22172;SDS011;11252;50.596;17.648;2023-02-25T06:35:23;2.30;;;2.00;;
22172;SDS011;11252;50.596;17.648;2023-02-25T06:37:54;1.97;;;1.47;;
22172;SDS011;11252;50.596;17.648;2023-02-25T06:40:23;3.13;;;2.43;;
22172;SDS011;11252;50.596;17.648;2023-02-25T06:42:51;2.00;;;1.80;;
22172;SDS011;11252;50.596;17.648;2023-02-25T06:45:18;2.83;;;2.00;;
22172;SDS011;11252;50.596;17.648;2023-02-25T06:47:46;5.00;;;2.23;;
22172;SDS011;11252;50.596;17.648;2023-02-25T06:50:13;2.43;;;1.80;;
22172;SDS011;11252;50.596;17.648;2023-02-25T06:52:41;2.30;;;1.67;;
22172;SDS011;11252;50.596;17.648;2023-02-25T06:55:09;3.67;;;1.87;;
22172;SDS011;11252;50.596;17.648;2023-02-25T06:57:36;4.77;;;2.07;;
22172;SDS011;11252;50.596;17.648;2023-02-25T07:00:04;4.77;;;1.90;;
22172;SDS011;11252;50.596;17.648;2023-02-25T07:02:32;3.93;;;2.43;;
22172;SDS011;11252;50.596;17.648;2023-02-25T07:05:00;1.87;;;1.77;;
22172;SDS011;11252;50.596;17.648;2023-02-25T07:07:28;5.07;;;2.57;;
22172;SDS011;11252;50.596;17.648;2023-02-25T07:09:55;4.73;;;2.00;;
22172;SDS011;11252;50.596;17.648;2023-02-25T07:12:22;3.80;;;2.67;;
22172;SDS011;11252;50.596;17.648;2023-02-25T07:14:50;2.53;;;2.33;;
22172;SDS011;11252;50.596;17.648;2023-02-25T07:17:17;3.87;;;2.23;;
22172;SDS011;11252;50.596;17.648;2023-02-25T07:19:45;5.40;;;3.40;;
22172;SDS011;11252;50.596;17.648;2023-02-25T07:22:15;3.23;;;2.93;;
22172;SDS011;11252;50.596;17.648;2023-02-25T07:24:44;3.63;;;2.20;;
22172;SDS011;11252;50.596;17.648;2023-02-25T07:27:12;4.10;;;2.70;;
22172;SDS011;11252;50.596;17.648;2023-02-25T07:29:39;3.03;;;2.70;;
22172;SDS011;11252;50.596;17.648;2023-02-25T07:32:07;2.90;;;2.67;;
22172;SDS011;11252;50.596;17.648;2023-02-25T07:34:35;4.03;;;2.27;;
22172;SDS011;11252;50.596;17.648;2023-02-25T07:37:04;4.17;;;2.37;;
22172;SDS011;11252;50.596;17.648;2023-02-25T07:39:31;1.97;;;1.87;;
22172;SDS011;11252;50.596;17.648;2023-02-25T07:41:59;4.03;;;2.20;;
22172;SDS011;11252;50.596;17.648;2023-02-25T07:44:27;2.80;;;2.00;;
22172;SDS011;11252;50.596;17.648;2023-02-25T07:46:54;1.70;;;1.60;;
22172;SDS011;11252;50.596;17.648;2023-02-25T07:49:21;2.93;;;2.03;;
22172;SDS011;11252;50.596;17.648;2023-02-25T07:51:48;2.30;;;1.70;;
22172;SDS011;11252;50.596;17.648;2023-02-25T07:54:16;1.97;;;1.73;;
22172;SDS011;11252;50.596;17.648;2023-02-25T07:56:46;5.53;;;1.70;;
22172;SDS011;11252;50.596;17.648;2023-02-25T07:59:17;2.00;;;1.50;;
22172;SDS011;11252;50.596;17.648;2023-02-25T08:01:44;2.20;;;1.60;;
22172;SDS011;11252;50.596;17.648;2023-02-25T08:04:12;2.47;;;1.93;;
22172;SDS011;11252;50.596;17.648;2023-02-25T08:06:40;1.53;;;1.37;;
22172;SDS011;11252;50.596;17.648;2023-02-25T08:09:09;2.63;;;1.63;;
22172;SDS011;11252;50.596;17.648;2023-02-25T08:11:38;2.17;;;1.40;;
22172;SDS011;11252;50.596;17.648;2023-02-25T08:14:06;2.60;;;1.33;;
22172;SDS011;11252;50.596;17.648;2023-02-25T08:16:33;2.10;;;1.63;;
22172;SDS011;11252;50.596;17.648;2023-02-25T08:19:00;1.83;;;1.30;;
22172;SDS011;11252;50.596;17.648;2023-02-25T08:21:28;1.27;;;1.17;;
22172;SDS011;11252;50.596;17.648;2023-02-25T08:23:56;2.00;;;1.03;;
22172;SDS011;11252;50.596;17.648;2023-02-25T08:26:24;2.43;;;1.67;;
22172;SDS011;11252;50.596;17.648;2023-02-25T08:28:54;0.73;;;0.73;;
22172;SDS011;11252;50.596;17.648;2023-02-25T08:31:22;2.50;;;1.40;;
22172;SDS011;11252;50.596;17.648;2023-02-25T08:33:50;1.33;;;1.23;;
22172;SDS011;11252;50.596;17.648;2023-02-25T08:36:23;2.27;;;1.50;;
22172;SDS011;11252;50.596;17.648;2023-02-25T08:38:53;1.10;;;1.00;;
22172;SDS011;11252;50.596;17.648;2023-02-25T08:41:23;2.40;;;1.67;;
22172;SDS011;11252;50.596;17.648;2023-02-25T08:43:52;1.47;;;1.17;;
22172;SDS011;11252;50.596;17.648;2023-02-25T08:46:21;1.87;;;1.33;;
22172;SDS011;11252;50.596;17.648;2023-02-25T08:48:51;4.70;;;1.60;;
22172;SDS011;11252;50.596;17.648;2023-02-25T08:51:20;2.37;;;1.87;;
22172;SDS011;11252;50.596;17.648;2023-02-25T08:53:49;2.17;;;1.53;;
22172;SDS011;11252;50.596;17.648;2023-02-25T08:56:18;1.57;;;1.13;;
22172;SDS011;11252;50.596;17.648;2023-02-25T08:58:45;1.33;;;1.23;;
22172;SDS011;11252;50.596;17.648;2023-02-25T09:01:14;3.03;;;1.73;;
22172;SDS011;11252;50.596;17.648;2023-02-25T09:03:44;3.23;;;1.80;;
22172;SDS011;11252;50.596;17.648;2023-02-25T09:06:26;2.10;;;2.00;;
22172;SDS011;11252;50.596;17.648;2023-02-25T09:08:54;1.50;;;1.40;;
22172;SDS011;11252;50.596;17.648;2023-02-25T09:11:22;1.70;;;1.60;;
22172;SDS011;11252;50.596;17.648;2023-02-25T09:13:51;3.10;;;1.80;;
22172;SDS011;11252;50.596;17.648;2023-02-25T09:16:19;2.47;;;1.90;;
22172;SDS011;11252;50.596;17.648;2023-02-25T09:18:48;4.40;;;2.37;;
22172;SDS011;11252;50.596;17.648;2023-02-25T09:21:17;1.87;;;1.70;;
22172;SDS011;11252;50.596;17.648;2023-02-25T09:23:45;1.70;;;1.60;;
22172;SDS011;11252;50.596;17.648;2023-02-25T09:26:13;2.23;;;1.63;;
22172;SDS011;11252;50.596;17.648;2023-02-25T09:28:40;1.20;;;1.20;;
22172;SDS011;11252;50.596;17.648;2023-02-25T09:31:08;2.80;;;1.77;;
22172;SDS011;11252;50.596;17.648;2023-02-25T09:33:36;1.90;;;1.77;;
22172;SDS011;11252;50.596;17.648;2023-02-25T09:36:08;1.60;;;1.50;;
22172;SDS011;11252;50.596;17.648;2023-02-25T09:38:38;2.13;;;1.80;;
22172;SDS011;11252;50.596;17.648;2023-02-25T09:44:03;2.10;;;1.60;;
22172;SDS011;11252;50.596;17.648;2023-02-25T09:49:48;1.53;;;1.33;;
22172;SDS011;11252;50.596;17.648;2023-02-25T09:52:30;1.30;;;1.20;;
22172;SDS011;11252;50.596;17.648;2023-02-25T09:55:34;2.60;;;1.47;;
22172;SDS011;11252;50.596;17.648;2023-02-25T09:58:05;2.50;;;1.40;;
22172;SDS011;11252;50.596;17.648;2023-02-25T10:11:40;1.40;;;1.20;;
22172;SDS011;11252;50.596;17.648;2023-02-25T10:22:28;2.03;;;1.40;;
22172;SDS011;11252;50.596;17.648;2023-02-25T10:28:02;1.40;;;1.00;;
22172;SDS011;11252;50.596;17.648;2023-02-25T10:33:15;0.73;;;0.73;;
22172;SDS011;11252;50.596;17.648;2023-02-25T10:35:57;0.80;;;0.80;;
22172;SDS011;11252;50.596;17.648;2023-02-25T10:38:30;1.10;;;0.97;;
22172;SDS011;11252;50.596;17.648;2023-02-25T10:40:59;1.77;;;1.20;;
22172;SDS011;11252;50.596;17.648;2023-02-25T10:43:27;1.33;;;1.10;;
22172;SDS011;11252;50.596;17.648;2023-02-25T10:48:41;1.70;;;1.30;;
22172;SDS011;11252;50.596;17.648;2023-02-25T10:51:14;1.37;;;0.80;;
22172;SDS011;11252;50.596;17.648;2023-02-25T10:56:39;1.03;;;0.90;;
22172;SDS011;11252;50.596;17.648;2023-02-25T11:02:20;5.30;;;3.47;;
22172;SDS011;11252;50.596;17.648;2023-02-25T11:04:51;0.93;;;0.80;;
22172;SDS011;11252;50.596;17.648;2023-02-25T11:10:06;1.00;;;0.70;;
22172;SDS011;11252;50.596;17.648;2023-02-25T11:12:48;0.90;;;0.80;;
22172;SDS011;11252;50.596;17.648;2023-02-25T11:15:27;1.53;;;0.80;;
22172;SDS011;11252;50.596;17.648;2023-02-25T11:18:14;0.80;;;0.80;;
22172;SDS011;11252;50.596;17.648;2023-02-25T11:20:51;0.47;;;0.47;;
22172;SDS011;11252;50.596;17.648;2023-02-25T11:23:21;0.40;;;0.40;;
22172;SDS011;11252;50.596;17.648;2023-02-25T11:25:54;0.80;;;0.73;;
22172;SDS011;11252;50.596;17.648;2023-02-25T11:28:25;1.53;;;1.13;;
22172;SDS011;11252;50.596;17.648;2023-02-25T11:31:09;1.57;;;1.20;;
22172;SDS011;11252;50.596;17.648;2023-02-25T11:33:39;0.93;;;0.87;;
22172;SDS011;11252;50.596;17.648;2023-02-25T11:36:10;0.80;;;0.63;;
22172;SDS011;11252;50.596;17.648;2023-02-25T11:38:40;0.70;;;0.70;;
22172;SDS011;11252;50.596;17.648;2023-02-25T11:41:14;0.70;;;0.70;;
22172;SDS011;11252;50.596;17.648;2023-02-25T11:43:45;0.80;;;0.80;;
22172;SDS011;11252;50.596;17.648;2023-02-25T11:46:19;0.70;;;0.67;;
22172;SDS011;11252;50.596;17.648;2023-02-25T11:49:00;0.57;;;0.57;;
22172;SDS011;11252;50.596;17.648;2023-02-25T11:51:46;1.20;;;0.70;;
22172;SDS011;11252;50.596;17.648;2023-02-25T11:54:28;0.50;;;0.50;;
22172;SDS011;11252;50.596;17.648;2023-02-25T12:05:22;0.50;;;0.50;;
22172;SDS011;11252;50.596;17.648;2023-02-25T12:41:38;1.53;;;1.07;;
22172;SDS011;11252;50.596;17.648;2023-02-25T12:52:32;0.80;;;0.53;;
22172;SDS011;11252;50.596;17.648;2023-02-25T13:06:26;0.80;;;0.80;;
22172;SDS011;11252;50.596;17.648;2023-02-25T13:09:20;1.40;;;0.80;;
22172;SDS011;11252;50.596;17.648;2023-02-25T13:18:10;0.60;;;0.60;;
22172;SDS011;11252;50.596;17.648;2023-02-25T13:20:46;1.13;;;0.90;;
22172;SDS011;11252;50.596;17.648;2023-02-25T13:26:32;0.50;;;0.50;;
22172;SDS011;11252;50.596;17.648;2023-02-25T13:35:09;0.60;;;0.60;;
22172;SDS011;11252;50.596;17.648;2023-02-25T13:54:33;2.03;;;0.70;;
22172;SDS011;11252;50.596;17.648;2023-02-25T14:02:39;0.70;;;0.70;;
22172;SDS011;11252;50.596;17.648;2023-02-25T14:05:36;4.60;;;3.13;;
22172;SDS011;11252;50.596;17.648;2023-02-25T14:28:34;1.20;;;0.80;;
22172;SDS011;11252;50.596;17.648;2023-02-25T14:33:56;1.33;;;0.97;;
22172;SDS011;11252;50.596;17.648;2023-02-25T14:45:13;2.70;;;1.20;;
22172;SDS011;11252;50.596;17.648;2023-02-25T14:50:50;1.00;;;0.90;;
22172;SDS011;11252;50.596;17.648;2023-02-25T14:53:34;1.17;;;1.10;;
22172;SDS011;11252;50.596;17.648;2023-02-25T14:56:24;1.90;;;1.27;;
22172;SDS011;11252;50.596;17.648;2023-02-25T15:18:51;1.80;;;1.40;;
22172;SDS011;11252;50.596;17.648;2023-02-25T15:21:40;2.13;;;1.87;;
22172;SDS011;11252;50.596;17.648;2023-02-25T15:27:50;1.70;;;1.50;;
22172;SDS011;11252;50.596;17.648;2023-02-25T15:32:55;1.60;;;1.50;;
22172;SDS011;11252;50.596;17.648;2023-02-25T15:38:04;1.43;;;1.33;;
22172;SDS011;11252;50.596;17.648;2023-02-25T15:40:45;2.00;;;1.60;;
22172;SDS011;11252;50.596;17.648;2023-02-25T15:45:48;2.70;;;1.37;;
22172;SDS011;11252;50.596;17.648;2023-02-25T15:48:28;1.80;;;1.57;;
22172;SDS011;11252;50.596;17.648;2023-02-25T15:50:57;3.70;;;2.80;;
22172;SDS011;11252;50.596;17.648;2023-02-25T16:08:36;2.00;;;1.80;;
22172;SDS011;11252;50.596;17.648;2023-02-25T16:11:41;2.20;;;1.90;;
22172;SDS011;11252;50.596;17.648;2023-02-25T16:14:19;2.47;;;2.27;;
22172;SDS011;11252;50.596;17.648;2023-02-25T16:16:59;4.20;;;2.40;;
22172;SDS011;11252;50.596;17.648;2023-02-25T16:19:41;3.43;;;3.17;;
22172;SDS011;11252;50.596;17.648;2023-02-25T16:22:13;3.70;;;2.93;;
22172;SDS011;11252;50.596;17.648;2023-02-25T16:24:46;2.50;;;2.30;;
22172;SDS011;11252;50.596;17.648;2023-02-25T16:27:33;2.53;;;2.33;;
22172;SDS011;11252;50.596;17.648;2023-02-25T16:35:36;3.10;;;2.77;;
22172;SDS011;11252;50.596;17.648;2023-02-25T16:38:25;2.57;;;2.30;;
22172;SDS011;11252;50.596;17.648;2023-02-25T16:41:02;2.97;;;2.67;;
22172;SDS011;11252;50.596;17.648;2023-02-25T16:43:30;2.40;;;2.10;;
22172;SDS011;11252;50.596;17.648;2023-02-25T16:46:03;3.50;;;3.20;;
22172;SDS011;11252;50.596;17.648;2023-02-25T16:48:35;3.23;;;2.40;;
22172;SDS011;11252;50.596;17.648;2023-02-25T16:51:09;3.63;;;3.30;;
22172;SDS011;11252;50.596;17.648;2023-02-25T16:53:50;2.83;;;2.63;;
22172;SDS011;11252;50.596;17.648;2023-02-25T16:56:24;3.60;;;3.30;;
22172;SDS011;11252;50.596;17.648;2023-02-25T17:01:53;4.10;;;3.80;;
22172;SDS011;11252;50.596;17.648;2023-02-25T17:04:41;3.90;;;3.50;;
22172;SDS011;11252;50.596;17.648;2023-02-25T17:07:15;5.33;;;4.40;;
22172;SDS011;11252;50.596;17.648;2023-02-25T17:09:53;4.03;;;3.73;;
22172;SDS011;11252;50.596;17.648;2023-02-25T17:14:57;3.40;;;3.10;;
22172;SDS011;11252;50.596;17.648;2023-02-25T17:17:27;3.80;;;3.40;;
22172;SDS011;11252;50.596;17.648;2023-02-25T17:19:58;4.73;;;4.13;;
22172;SDS011;11252;50.596;17.648;2023-02-25T17:22:30;4.10;;;3.67;;
22172;SDS011;11252;50.596;17.648;2023-02-25T17:25:00;4.60;;;3.50;;
22172;SDS011;11252;50.596;17.648;2023-02-25T17:27:30;4.03;;;3.20;;
22172;SDS011;11252;50.596;17.648;2023-02-25T17:29:58;4.17;;;3.77;;
22172;SDS011;11252;50.596;17.648;2023-02-25T17:32:26;4.20;;;3.80;;
22172;SDS011;11252;50.596;17.648;2023-02-25T17:34:56;4.80;;;3.60;;
22172;SDS011;11252;50.596;17.648;2023-02-25T17:37:28;3.70;;;3.20;;
22172;SDS011;11252;50.596;17.648;2023-02-25T17:39:56;3.03;;;2.73;;
22172;SDS011;11252;50.596;17.648;2023-02-25T17:42:28;3.90;;;3.40;;
22172;SDS011;11252;50.596;17.648;2023-02-25T17:45:04;3.30;;;3.00;;
22172;SDS011;11252;50.596;17.648;2023-02-25T17:47:34;4.30;;;3.40;;
22172;SDS011;11252;50.596;17.648;2023-02-25T17:50:21;3.57;;;3.27;;
22172;SDS011;11252;50.596;17.648;2023-02-25T17:52:55;3.60;;;3.30;;
22172;SDS011;11252;50.596;17.648;2023-02-25T17:55:28;4.33;;;3.67;;
22172;SDS011;11252;50.596;17.648;2023-02-25T17:58:00;4.47;;;4.03;;
22172;SDS011;11252;50.596;17.648;2023-02-25T18:00:30;4.37;;;3.90;;
22172;SDS011;11252;50.596;17.648;2023-02-25T18:03:35;4.40;;;4.00;;
22172;SDS011;11252;50.596;17.648;2023-02-25T18:05:57;4.37;;;3.97;;
22172;SDS011;11252;50.596;17.648;2023-02-25T18:08:27;3.83;;;3.43;;
22172;SDS011;11252;50.596;17.648;2023-02-25T18:11:41;4.13;;;3.73;;
22172;SDS011;11252;50.596;17.648;2023-02-25T18:14:23;4.47;;;3.40;;
22172;SDS011;11252;50.596;17.648;2023-02-25T18:17:00;4.73;;;4.10;;
22172;SDS011;11252;50.596;17.648;2023-02-25T18:19:37;5.03;;;4.50;;
22172;SDS011;11252;50.596;17.648;2023-02-25T18:22:07;4.03;;;3.63;;
22172;SDS011;11252;50.596;17.648;2023-02-25T18:25:00;4.30;;;3.80;;
22172;SDS011;11252;50.596;17.648;2023-02-25T18:27:31;5.10;;;4.60;;
22172;SDS011;11252;50.596;17.648;2023-02-25T18:32:44;4.37;;;3.30;;
22172;SDS011;11252;50.596;17.648;2023-02-25T18:35:11;4.50;;;4.10;;
22172;SDS011;11252;50.596;17.648;2023-02-25T18:37:39;4.20;;;3.80;;
22172;SDS011;11252;50.596;17.648;2023-02-25T18:40:27;4.67;;;4.10;;
22172;SDS011;11252;50.596;17.648;2023-02-25T18:42:57;6.27;;;4.60;;
22172;SDS011;11252;50.596;17.648;2023-02-25T18:45:26;3.83;;;3.50;;
22172;SDS011;11252;50.596;17.648;2023-02-25T18:47:54;5.77;;;4.80;;
22172;SDS011;11252;50.596;17.648;2023-02-25T18:50:22;5.07;;;4.40;;
22172;SDS011;11252;50.596;17.648;2023-02-25T18:52:51;5.50;;;4.70;;
22172;SDS011;11252;50.596;17.648;2023-02-25T18:55:26;6.87;;;4.83;;
22172;SDS011;11252;50.596;17.648;2023-02-25T18:57:55;5.43;;;4.90;;
22172;SDS011;11252;50.596;17.648;2023-02-25T19:00:23;5.20;;;4.70;;
22172;SDS011;11252;50.596;17.648;2023-02-25T19:03:01;6.07;;;5.10;;
22172;SDS011;11252;50.596;17.648;2023-02-25T19:05:30;5.17;;;4.50;;
22172;SDS011;11252;50.596;17.648;2023-02-25T19:07:59;6.53;;;4.60;;
22172;SDS011;11252;50.596;17.648;2023-02-25T19:10:28;7.20;;;5.30;;
22172;SDS011;11252;50.596;17.648;2023-02-25T19:13:00;6.07;;;5.30;;
22172;SDS011;11252;50.596;17.648;2023-02-25T19:15:28;5.63;;;5.00;;
22172;SDS011;11252;50.596;17.648;2023-02-25T19:17:56;5.30;;;4.80;;
22172;SDS011;11252;50.596;17.648;2023-02-25T19:20:23;7.07;;;5.33;;